sensor_id;sensor_type;location;lat;lon;timestamp;pressure;altitude;pressure_sealevel;temperature;humidity
70437;BME280;57877;39.750;-104.894;2023-08-17T00:00:40;83731.37;;;33.07;9.14
70437;BME280;57877;39.750;-104.894;2023-08-17T00:03:05;83732.33;;;33.62;8.68
70437;BME280;57877;39.750;-104.894;2023-08-17T00:05:31;83734.74;;;34.64;8.60
70437;BME280;57877;39.750;-104.894;2023-08-17T00:07:55;83730.59;;;35.49;7.94
70437;BME280;57877;39.750;-104.894;2023-08-17T00:10:21;83730.20;;;35.34;7.66
70437;BME280;57877;39.750;-104.894;2023-08-17T00:12:46;83731.24;;;35.51;7.70
70437;BME280;57877;39.750;-104.894;2023-08-17T00:15:11;83733.38;;;35.83;7.50
70437;BME280;57877;39.750;-104.894;2023-08-17T00:17:36;83733.82;;;35.83;7.68
70437;BME280;57877;39.750;-104.894;2023-08-17T00:20:01;83734.34;;;35.68;7.72
70437;BME280;57877;39.750;-104.894;2023-08-17T00:22:26;83736.02;;;35.15;7.62
70437;BME280;57877;39.750;-104.894;2023-08-17T00:24:56;83736.48;;;35.90;7.64
70437;BME280;57877;39.750;-104.894;2023-08-17T00:27:16;83739.28;;;35.04;8.09
70437;BME280;57877;39.750;-104.894;2023-08-17T00:29:41;83741.93;;;34.97;8.12
70437;BME280;57877;39.750;-104.894;2023-08-17T00:32:06;83743.17;;;35.28;7.84
70437;BME280;57877;39.750;-104.894;2023-08-17T00:34:31;83746.72;;;35.14;8.07
70437;BME280;57877;39.750;-104.894;2023-08-17T00:36:56;83748.00;;;35.64;8.24
70437;BME280;57877;39.750;-104.894;2023-08-17T00:39:22;83751.87;;;34.84;8.71
70437;BME280;57877;39.750;-104.894;2023-08-17T00:41:47;83754.78;;;34.64;8.78
70437;BME280;57877;39.750;-104.894;2023-08-17T00:44:12;83762.69;;;34.47;9.22
70437;BME280;57877;39.750;-104.894;2023-08-17T00:46:37;83769.84;;;34.43;9.02
70437;BME280;57877;39.750;-104.894;2023-08-17T00:49:02;83773.10;;;32.92;9.97
70437;BME280;57877;39.750;-104.894;2023-08-17T00:51:28;83776.28;;;33.57;9.80
70437;BME280;57877;39.750;-104.894;2023-08-17T00:53:54;83776.27;;;32.22;10.69
70437;BME280;57877;39.750;-104.894;2023-08-17T00:56:17;83771.82;;;31.03;11.81
70437;BME280;57877;39.750;-104.894;2023-08-17T00:58:43;83774.30;;;31.77;11.50
70437;BME280;57877;39.750;-104.894;2023-08-17T01:01:07;83773.49;;;31.30;11.91
70437;BME280;57877;39.750;-104.894;2023-08-17T01:03:32;83773.18;;;32.55;11.30
70437;BME280;57877;39.750;-104.894;2023-08-17T01:05:58;83774.72;;;32.62;11.06
70437;BME280;57877;39.750;-104.894;2023-08-17T01:08:22;83774.68;;;32.57;11.14
70437;BME280;57877;39.750;-104.894;2023-08-17T01:10:55;83780.01;;;32.28;11.17
70437;BME280;57877;39.750;-104.894;2023-08-17T01:13:17;83785.28;;;32.69;10.94
70437;BME280;57877;39.750;-104.894;2023-08-17T01:15:40;83782.29;;;31.77;11.39
70437;BME280;57877;39.750;-104.894;2023-08-17T01:18:08;83788.62;;;32.45;11.27
70437;BME280;57877;39.750;-104.894;2023-08-17T01:20:28;83794.54;;;30.93;11.93
70437;BME280;57877;39.750;-104.894;2023-08-17T01:22:56;83792.39;;;31.45;11.76
70437;BME280;57877;39.750;-104.894;2023-08-17T01:25:18;83790.88;;;32.05;11.42
70437;BME280;57877;39.750;-104.894;2023-08-17T01:27:46;83791.03;;;32.35;11.31
70437;BME280;57877;39.750;-104.894;2023-08-17T01:30:10;83797.30;;;32.46;11.21
70437;BME280;57877;39.750;-104.894;2023-08-17T01:32:37;83796.09;;;32.23;11.45
70437;BME280;57877;39.750;-104.894;2023-08-17T01:35:03;83800.06;;;32.44;11.19
70437;BME280;57877;39.750;-104.894;2023-08-17T01:37:31;83802.78;;;32.66;11.08
70437;BME280;57877;39.750;-104.894;2023-08-17T01:39:52;83808.39;;;32.80;11.10
70437;BME280;57877;39.750;-104.894;2023-08-17T01:42:15;83810.73;;;32.67;11.02
70437;BME280;57877;39.750;-104.894;2023-08-17T01:44:39;83813.55;;;33.05;10.77
70437;BME280;57877;39.750;-104.894;2023-08-17T01:47:04;83815.16;;;32.89;10.97
70437;BME280;57877;39.750;-104.894;2023-08-17T01:49:29;83819.45;;;33.17;10.95
70437;BME280;57877;39.750;-104.894;2023-08-17T01:51:54;83819.59;;;32.80;10.90
70437;BME280;57877;39.750;-104.894;2023-08-17T01:54:19;83824.05;;;32.59;10.98
70437;BME280;57877;39.750;-104.894;2023-08-17T01:56:44;83823.41;;;32.96;10.95
70437;BME280;57877;39.750;-104.894;2023-08-17T01:59:09;83825.03;;;31.95;11.25
70437;BME280;57877;39.750;-104.894;2023-08-17T02:01:34;83829.15;;;31.77;11.15
70437;BME280;57877;39.750;-104.894;2023-08-17T02:03:59;83834.98;;;32.69;10.88
70437;BME280;57877;39.750;-104.894;2023-08-17T02:06:24;83834.56;;;32.27;11.13
70437;BME280;57877;39.750;-104.894;2023-08-17T02:08:49;83833.00;;;31.75;11.31
70437;BME280;57877;39.750;-104.894;2023-08-17T02:11:15;83838.64;;;31.92;11.49
70437;BME280;57877;39.750;-104.894;2023-08-17T02:13:40;83844.75;;;32.35;11.37
70437;BME280;57877;39.750;-104.894;2023-08-17T02:16:05;83852.18;;;31.96;11.42
70437;BME280;57877;39.750;-104.894;2023-08-17T02:18:30;83861.19;;;30.25;12.87
70437;BME280;57877;39.750;-104.894;2023-08-17T02:20:55;83858.10;;;30.61;12.84
70437;BME280;57877;39.750;-104.894;2023-08-17T02:23:20;83863.21;;;30.73;12.94
70437;BME280;57877;39.750;-104.894;2023-08-17T02:25:45;83865.95;;;30.96;12.86
70437;BME280;57877;39.750;-104.894;2023-08-17T02:28:10;83873.67;;;29.80;13.73
70437;BME280;57877;39.750;-104.894;2023-08-17T02:30:35;83876.95;;;30.39;13.41
70437;BME280;57877;39.750;-104.894;2023-08-17T02:33:00;83875.42;;;30.38;13.64
70437;BME280;57877;39.750;-104.894;2023-08-17T02:35:25;83876.56;;;29.82;14.19
70437;BME280;57877;39.750;-104.894;2023-08-17T02:37:50;83880.69;;;30.05;13.93
70437;BME280;57877;39.750;-104.894;2023-08-17T02:40:15;83884.98;;;29.74;14.26
70437;BME280;57877;39.750;-104.894;2023-08-17T02:42:41;83885.87;;;28.72;15.02
70437;BME280;57877;39.750;-104.894;2023-08-17T02:45:06;83882.23;;;29.60;14.84
70437;BME280;57877;39.750;-104.894;2023-08-17T02:47:31;83888.81;;;29.88;14.28
70437;BME280;57877;39.750;-104.894;2023-08-17T02:49:56;83894.73;;;29.29;14.60
70437;BME280;57877;39.750;-104.894;2023-08-17T02:52:21;83892.31;;;28.96;14.74
70437;BME280;57877;39.750;-104.894;2023-08-17T02:54:46;83893.65;;;30.35;14.20
70437;BME280;57877;39.750;-104.894;2023-08-17T02:57:12;83895.86;;;29.47;15.05
70437;BME280;57877;39.750;-104.894;2023-08-17T02:59:36;83897.59;;;28.62;15.77
70437;BME280;57877;39.750;-104.894;2023-08-17T03:02:01;83900.74;;;29.01;15.92
70437;BME280;57877;39.750;-104.894;2023-08-17T03:04:26;83906.78;;;28.93;16.33
70437;BME280;57877;39.750;-104.894;2023-08-17T03:06:51;83910.13;;;28.53;16.57
70437;BME280;57877;39.750;-104.894;2023-08-17T03:09:16;83913.90;;;28.44;17.15
70437;BME280;57877;39.750;-104.894;2023-08-17T03:11:41;83916.46;;;28.69;17.16
70437;BME280;57877;39.750;-104.894;2023-08-17T03:14:06;83917.20;;;28.26;17.88
70437;BME280;57877;39.750;-104.894;2023-08-17T03:16:31;83915.33;;;28.03;18.47
70437;BME280;57877;39.750;-104.894;2023-08-17T03:18:56;83916.02;;;27.94;18.65
70437;BME280;57877;39.750;-104.894;2023-08-17T03:21:21;83916.81;;;27.41;18.88
70437;BME280;57877;39.750;-104.894;2023-08-17T03:23:47;83921.47;;;27.62;18.85
70437;BME280;57877;39.750;-104.894;2023-08-17T03:26:11;83924.83;;;27.99;18.61
70437;BME280;57877;39.750;-104.894;2023-08-17T03:28:37;83923.21;;;27.92;18.77
70437;BME280;57877;39.750;-104.894;2023-08-17T03:31:02;83931.53;;;28.12;18.78
70437;BME280;57877;39.750;-104.894;2023-08-17T03:33:27;83933.48;;;27.80;19.01
70437;BME280;57877;39.750;-104.894;2023-08-17T03:35:52;83932.92;;;27.47;19.26
70437;BME280;57877;39.750;-104.894;2023-08-17T03:38:17;83932.08;;;26.95;19.55
70437;BME280;57877;39.750;-104.894;2023-08-17T03:40:42;83934.98;;;27.62;19.10
70437;BME280;57877;39.750;-104.894;2023-08-17T03:43:07;83937.96;;;27.65;19.07
70437;BME280;57877;39.750;-104.894;2023-08-17T03:45:32;83939.24;;;26.89;19.92
70437;BME280;57877;39.750;-104.894;2023-08-17T03:47:57;83946.16;;;27.18;20.14
70437;BME280;57877;39.750;-104.894;2023-08-17T03:50:22;83946.97;;;26.56;20.51
70437;BME280;57877;39.750;-104.894;2023-08-17T03:52:48;83951.56;;;27.17;20.27
70437;BME280;57877;39.750;-104.894;2023-08-17T03:55:14;83950.75;;;26.39;20.98
70437;BME280;57877;39.750;-104.894;2023-08-17T03:57:39;83956.11;;;26.83;20.83
70437;BME280;57877;39.750;-104.894;2023-08-17T04:00:06;83956.07;;;26.60;20.96
70437;BME280;57877;39.750;-104.894;2023-08-17T04:02:31;83957.91;;;26.62;21.02
70437;BME280;57877;39.750;-104.894;2023-08-17T04:04:57;83955.25;;;26.63;20.77
70437;BME280;57877;39.750;-104.894;2023-08-17T04:07:23;83955.78;;;26.92;20.73
70437;BME280;57877;39.750;-104.894;2023-08-17T04:09:49;83960.75;;;26.30;21.09
70437;BME280;57877;39.750;-104.894;2023-08-17T04:12:15;83964.58;;;26.88;20.42
70437;BME280;57877;39.750;-104.894;2023-08-17T04:14:40;83965.16;;;26.45;20.90
70437;BME280;57877;39.750;-104.894;2023-08-17T04:17:05;83968.41;;;26.51;20.87
70437;BME280;57877;39.750;-104.894;2023-08-17T04:19:30;83967.99;;;26.23;21.17
70437;BME280;57877;39.750;-104.894;2023-08-17T04:21:55;83970.41;;;25.59;21.57
70437;BME280;57877;39.750;-104.894;2023-08-17T04:24:20;83978.26;;;25.60;21.75
70437;BME280;57877;39.750;-104.894;2023-08-17T04:26:45;83973.65;;;26.04;21.15
70437;BME280;57877;39.750;-104.894;2023-08-17T04:29:10;83978.89;;;25.80;21.76
70437;BME280;57877;39.750;-104.894;2023-08-17T04:31:36;83982.44;;;25.60;21.91
70437;BME280;57877;39.750;-104.894;2023-08-17T04:34:02;83983.47;;;25.67;21.77
70437;BME280;57877;39.750;-104.894;2023-08-17T04:36:27;83984.07;;;25.25;22.17
70437;BME280;57877;39.750;-104.894;2023-08-17T04:38:52;83987.42;;;25.43;21.96
70437;BME280;57877;39.750;-104.894;2023-08-17T04:41:17;83987.03;;;25.71;21.69
70437;BME280;57877;39.750;-104.894;2023-08-17T04:43:43;83986.29;;;24.82;22.26
70437;BME280;57877;39.750;-104.894;2023-08-17T04:46:08;83984.10;;;25.70;21.57
70437;BME280;57877;39.750;-104.894;2023-08-17T04:48:33;83987.46;;;24.57;22.46
70437;BME280;57877;39.750;-104.894;2023-08-17T04:50:58;83987.75;;;24.69;22.51
70437;BME280;57877;39.750;-104.894;2023-08-17T04:53:23;83981.45;;;25.23;22.00
70437;BME280;57877;39.750;-104.894;2023-08-17T04:55:48;83979.66;;;25.71;21.43
70437;BME280;57877;39.750;-104.894;2023-08-17T04:58:13;83976.83;;;24.63;22.39
70437;BME280;57877;39.750;-104.894;2023-08-17T05:00:38;83971.55;;;24.77;22.07
70437;BME280;57877;39.750;-104.894;2023-08-17T05:03:04;83969.71;;;24.81;22.12
70437;BME280;57877;39.750;-104.894;2023-08-17T05:05:29;83964.82;;;24.75;22.15
70437;BME280;57877;39.750;-104.894;2023-08-17T05:07:54;83964.56;;;24.54;22.35
70437;BME280;57877;39.750;-104.894;2023-08-17T05:10:19;83961.49;;;24.64;22.28
70437;BME280;57877;39.750;-104.894;2023-08-17T05:12:44;83960.44;;;25.16;21.79
70437;BME280;57877;39.750;-104.894;2023-08-17T05:15:10;83956.56;;;25.11;21.85
70437;BME280;57877;39.750;-104.894;2023-08-17T05:17:35;83956.45;;;25.12;21.81
70437;BME280;57877;39.750;-104.894;2023-08-17T05:19:59;83956.18;;;25.40;21.74
70437;BME280;57877;39.750;-104.894;2023-08-17T05:22:25;83958.84;;;25.85;21.06
70437;BME280;57877;39.750;-104.894;2023-08-17T05:24:50;83961.85;;;25.62;21.22
70437;BME280;57877;39.750;-104.894;2023-08-17T05:27:14;83964.55;;;26.08;20.85
70437;BME280;57877;39.750;-104.894;2023-08-17T05:29:41;83965.56;;;25.79;20.90
70437;BME280;57877;39.750;-104.894;2023-08-17T05:32:07;83966.09;;;25.47;21.56
70437;BME280;57877;39.750;-104.894;2023-08-17T05:34:33;83967.17;;;25.89;21.24
70437;BME280;57877;39.750;-104.894;2023-08-17T05:36:59;83962.00;;;26.05;21.06
70437;BME280;57877;39.750;-104.894;2023-08-17T05:39:25;83964.88;;;25.55;21.22
70437;BME280;57877;39.750;-104.894;2023-08-17T05:41:51;83962.46;;;25.53;21.52
70437;BME280;57877;39.750;-104.894;2023-08-17T05:44:17;83967.60;;;25.54;21.17
70437;BME280;57877;39.750;-104.894;2023-08-17T05:46:43;83968.33;;;25.29;21.39
70437;BME280;57877;39.750;-104.894;2023-08-17T05:49:09;83971.33;;;24.75;21.80
70437;BME280;57877;39.750;-104.894;2023-08-17T05:51:35;83969.91;;;25.34;21.43
70437;BME280;57877;39.750;-104.894;2023-08-17T05:54:01;83970.45;;;25.28;21.19
70437;BME280;57877;39.750;-104.894;2023-08-17T05:56:27;83972.97;;;25.42;21.03
70437;BME280;57877;39.750;-104.894;2023-08-17T05:58:53;83970.22;;;25.00;21.22
70437;BME280;57877;39.750;-104.894;2023-08-17T06:01:19;83971.87;;;24.86;21.20
70437;BME280;57877;39.750;-104.894;2023-08-17T06:03:45;83975.11;;;25.14;21.11
70437;BME280;57877;39.750;-104.894;2023-08-17T06:06:11;83975.16;;;25.40;20.91
70437;BME280;57877;39.750;-104.894;2023-08-17T06:08:36;83975.61;;;25.51;20.90
70437;BME280;57877;39.750;-104.894;2023-08-17T06:11:01;83978.70;;;25.49;20.87
70437;BME280;57877;39.750;-104.894;2023-08-17T06:13:27;83975.60;;;25.35;20.95
70437;BME280;57877;39.750;-104.894;2023-08-17T06:15:53;83974.70;;;25.14;21.11
70437;BME280;57877;39.750;-104.894;2023-08-17T06:18:19;83971.31;;;25.41;20.83
70437;BME280;57877;39.750;-104.894;2023-08-17T06:20:45;83968.91;;;25.38;20.68
70437;BME280;57877;39.750;-104.894;2023-08-17T06:23:10;83966.45;;;25.77;20.62
70437;BME280;57877;39.750;-104.894;2023-08-17T06:25:35;83965.72;;;25.50;20.55
70437;BME280;57877;39.750;-104.894;2023-08-17T06:28:01;83967.04;;;25.71;20.60
70437;BME280;57877;39.750;-104.894;2023-08-17T06:30:26;83967.00;;;25.54;20.50
70437;BME280;57877;39.750;-104.894;2023-08-17T06:32:51;83964.20;;;26.20;20.04
70437;BME280;57877;39.750;-104.894;2023-08-17T06:35:17;83964.22;;;25.68;20.39
70437;BME280;57877;39.750;-104.894;2023-08-17T06:37:43;83966.14;;;25.82;20.25
70437;BME280;57877;39.750;-104.894;2023-08-17T06:40:09;83966.74;;;25.60;20.41
70437;BME280;57877;39.750;-104.894;2023-08-17T06:42:34;83968.55;;;25.99;20.17
70437;BME280;57877;39.750;-104.894;2023-08-17T06:45:00;83966.92;;;26.09;20.02
70437;BME280;57877;39.750;-104.894;2023-08-17T06:47:25;83966.68;;;25.63;20.34
70437;BME280;57877;39.750;-104.894;2023-08-17T06:49:50;83970.85;;;26.04;20.02
70437;BME280;57877;39.750;-104.894;2023-08-17T06:52:16;83967.92;;;25.90;20.13
70437;BME280;57877;39.750;-104.894;2023-08-17T06:54:42;83968.54;;;25.67;20.33
70437;BME280;57877;39.750;-104.894;2023-08-17T06:57:07;83969.28;;;26.26;19.86
70437;BME280;57877;39.750;-104.894;2023-08-17T06:59:32;83969.07;;;26.04;20.17
70437;BME280;57877;39.750;-104.894;2023-08-17T07:01:57;83970.91;;;26.45;19.86
70437;BME280;57877;39.750;-104.894;2023-08-17T07:04:22;83968.65;;;26.00;20.11
70437;BME280;57877;39.750;-104.894;2023-08-17T07:06:48;83968.98;;;25.89;20.22
70437;BME280;57877;39.750;-104.894;2023-08-17T07:09:14;83967.64;;;26.10;20.28
70437;BME280;57877;39.750;-104.894;2023-08-17T07:11:40;83968.07;;;26.04;20.17
70437;BME280;57877;39.750;-104.894;2023-08-17T07:14:06;83968.53;;;26.15;20.12
70437;BME280;57877;39.750;-104.894;2023-08-17T07:16:32;83968.37;;;25.92;20.33
70437;BME280;57877;39.750;-104.894;2023-08-17T07:18:56;83966.46;;;25.19;20.84
70437;BME280;57877;39.750;-104.894;2023-08-17T07:21:21;83964.02;;;25.94;20.25
70437;BME280;57877;39.750;-104.894;2023-08-17T07:23:46;83965.51;;;26.26;20.04
70437;BME280;57877;39.750;-104.894;2023-08-17T07:26:12;83965.91;;;26.15;19.82
70437;BME280;57877;39.750;-104.894;2023-08-17T07:28:37;83969.56;;;25.88;20.01
70437;BME280;57877;39.750;-104.894;2023-08-17T07:31:03;83972.14;;;26.11;19.97
70437;BME280;57877;39.750;-104.894;2023-08-17T07:33:28;83969.59;;;26.10;20.02
70437;BME280;57877;39.750;-104.894;2023-08-17T07:35:53;83966.06;;;26.05;20.13
70437;BME280;57877;39.750;-104.894;2023-08-17T07:38:18;83964.74;;;26.60;19.89
70437;BME280;57877;39.750;-104.894;2023-08-17T07:40:44;83965.31;;;26.34;19.82
70437;BME280;57877;39.750;-104.894;2023-08-17T07:43:10;83969.37;;;26.32;20.08
70437;BME280;57877;39.750;-104.894;2023-08-17T07:45:36;83974.04;;;26.46;20.09
70437;BME280;57877;39.750;-104.894;2023-08-17T07:48:01;83976.05;;;26.22;20.16
70437;BME280;57877;39.750;-104.894;2023-08-17T07:50:27;83975.68;;;26.19;20.46
70437;BME280;57877;39.750;-104.894;2023-08-17T07:52:53;83978.09;;;25.51;20.81
70437;BME280;57877;39.750;-104.894;2023-08-17T07:55:18;83980.97;;;25.71;20.83
70437;BME280;57877;39.750;-104.894;2023-08-17T07:57:44;83978.91;;;26.00;20.81
70437;BME280;57877;39.750;-104.894;2023-08-17T08:00:11;83981.97;;;25.57;21.14
70437;BME280;57877;39.750;-104.894;2023-08-17T08:02:36;83986.69;;;25.50;21.38
70437;BME280;57877;39.750;-104.894;2023-08-17T08:05:02;83991.81;;;25.39;21.50
70437;BME280;57877;39.750;-104.894;2023-08-17T08:07:27;83994.60;;;25.36;21.39
70437;BME280;57877;39.750;-104.894;2023-08-17T08:09:53;83999.71;;;24.92;22.23
70437;BME280;57877;39.750;-104.894;2023-08-17T08:12:19;83995.35;;;25.35;21.48
70437;BME280;57877;39.750;-104.894;2023-08-17T08:14:45;83999.72;;;23.75;23.80
70437;BME280;57877;39.750;-104.894;2023-08-17T08:17:11;83997.55;;;24.57;22.46
70437;BME280;57877;39.750;-104.894;2023-08-17T08:19:37;83998.86;;;23.93;23.56
70437;BME280;57877;39.750;-104.894;2023-08-17T08:22:03;84002.62;;;24.86;23.10
70437;BME280;57877;39.750;-104.894;2023-08-17T08:24:29;84002.43;;;25.09;22.57
70437;BME280;57877;39.750;-104.894;2023-08-17T08:26:54;84005.18;;;24.87;22.74
70437;BME280;57877;39.750;-104.894;2023-08-17T08:29:20;84007.78;;;24.65;23.54
70437;BME280;57877;39.750;-104.894;2023-08-17T08:31:46;84005.43;;;24.93;23.14
70437;BME280;57877;39.750;-104.894;2023-08-17T08:34:12;84010.17;;;25.00;23.16
70437;BME280;57877;39.750;-104.894;2023-08-17T08:36:38;84009.84;;;24.73;23.46
70437;BME280;57877;39.750;-104.894;2023-08-17T08:39:10;84010.09;;;24.67;23.73
70437;BME280;57877;39.750;-104.894;2023-08-17T08:41:30;84012.91;;;24.44;23.35
70437;BME280;57877;39.750;-104.894;2023-08-17T08:43:55;84014.12;;;24.79;23.19
70437;BME280;57877;39.750;-104.894;2023-08-17T08:46:22;84012.31;;;24.59;23.45
70437;BME280;57877;39.750;-104.894;2023-08-17T08:48:48;84014.06;;;23.63;23.76
70437;BME280;57877;39.750;-104.894;2023-08-17T08:51:15;84014.77;;;23.02;23.42
70437;BME280;57877;39.750;-104.894;2023-08-17T08:53:43;84014.19;;;23.25;23.23
70437;BME280;57877;39.750;-104.894;2023-08-17T08:56:07;84011.53;;;22.23;23.84
70437;BME280;57877;39.750;-104.894;2023-08-17T08:58:32;84016.47;;;22.90;23.28
70437;BME280;57877;39.750;-104.894;2023-08-17T09:00:58;84018.65;;;22.33;23.96
70437;BME280;57877;39.750;-104.894;2023-08-17T09:03:22;84025.29;;;22.66;23.84
70437;BME280;57877;39.750;-104.894;2023-08-17T09:05:48;84029.25;;;21.51;25.24
70437;BME280;57877;39.750;-104.894;2023-08-17T09:08:13;84034.12;;;21.43;25.68
70437;BME280;57877;39.750;-104.894;2023-08-17T09:10:36;84038.14;;;21.72;25.76
70437;BME280;57877;39.750;-104.894;2023-08-17T09:13:03;84040.21;;;22.32;25.49
70437;BME280;57877;39.750;-104.894;2023-08-17T09:15:29;84043.61;;;21.21;26.83
70437;BME280;57877;39.750;-104.894;2023-08-17T09:17:55;84044.18;;;21.21;27.18
70437;BME280;57877;39.750;-104.894;2023-08-17T09:22:47;84049.81;;;20.74;28.00
70437;BME280;57877;39.750;-104.894;2023-08-17T09:25:21;84044.52;;;22.13;26.56
70437;BME280;57877;39.750;-104.894;2023-08-17T09:27:39;84043.41;;;20.94;27.77
70437;BME280;57877;39.750;-104.894;2023-08-17T09:30:07;84046.96;;;22.65;26.02
70437;BME280;57877;39.750;-104.894;2023-08-17T09:32:31;84048.33;;;22.58;25.84
70437;BME280;57877;39.750;-104.894;2023-08-17T09:34:57;84055.11;;;22.18;26.18
70437;BME280;57877;39.750;-104.894;2023-08-17T09:37:23;84051.10;;;20.88;27.89
70437;BME280;57877;39.750;-104.894;2023-08-17T09:39:49;84055.55;;;20.04;28.78
70437;BME280;57877;39.750;-104.894;2023-08-17T09:42:15;84053.95;;;20.29;29.07
70437;BME280;57877;39.750;-104.894;2023-08-17T09:44:41;84051.86;;;20.84;28.42
70437;BME280;57877;39.750;-104.894;2023-08-17T09:47:07;84049.41;;;20.32;29.00
70437;BME280;57877;39.750;-104.894;2023-08-17T09:49:33;84047.71;;;20.61;28.54
70437;BME280;57877;39.750;-104.894;2023-08-17T09:52:00;84049.39;;;20.58;28.29
70437;BME280;57877;39.750;-104.894;2023-08-17T09:54:25;84046.28;;;21.80;27.08
70437;BME280;57877;39.750;-104.894;2023-08-17T09:56:51;84047.64;;;21.08;27.88
70437;BME280;57877;39.750;-104.894;2023-08-17T09:59:17;84049.08;;;21.19;27.39
70437;BME280;57877;39.750;-104.894;2023-08-17T10:01:43;84052.38;;;21.75;26.69
70437;BME280;57877;39.750;-104.894;2023-08-17T10:04:09;84051.65;;;21.03;27.36
70437;BME280;57877;39.750;-104.894;2023-08-17T10:06:36;84054.49;;;21.95;26.69
70437;BME280;57877;39.750;-104.894;2023-08-17T10:09:01;84059.07;;;22.14;26.42
70437;BME280;57877;39.750;-104.894;2023-08-17T10:11:27;84062.67;;;22.37;26.72
70437;BME280;57877;39.750;-104.894;2023-08-17T10:13:59;84065.75;;;20.66;27.95
70437;BME280;57877;39.750;-104.894;2023-08-17T10:16:23;84069.14;;;21.66;26.93
70437;BME280;57877;39.750;-104.894;2023-08-17T10:18:49;84072.52;;;22.24;26.77
70437;BME280;57877;39.750;-104.894;2023-08-17T10:21:17;84074.29;;;21.47;26.95
70437;BME280;57877;39.750;-104.894;2023-08-17T10:23:37;84081.84;;;20.53;28.23
70437;BME280;57877;39.750;-104.894;2023-08-17T10:26:03;84084.41;;;20.29;28.46
70437;BME280;57877;39.750;-104.894;2023-08-17T10:28:30;84088.60;;;20.34;28.59
70437;BME280;57877;39.750;-104.894;2023-08-17T10:30:55;84083.24;;;21.49;27.40
70437;BME280;57877;39.750;-104.894;2023-08-17T10:33:21;84088.02;;;20.39;28.42
70437;BME280;57877;39.750;-104.894;2023-08-17T10:35:48;84087.56;;;21.45;27.21
70437;BME280;57877;39.750;-104.894;2023-08-17T10:38:14;84090.14;;;20.41;28.31
70437;BME280;57877;39.750;-104.894;2023-08-17T10:40:41;84084.67;;;21.42;27.43
70437;BME280;57877;39.750;-104.894;2023-08-17T10:43:05;84085.43;;;21.72;27.57
70437;BME280;57877;39.750;-104.894;2023-08-17T10:45:32;84090.41;;;21.66;27.22
70437;BME280;57877;39.750;-104.894;2023-08-17T10:50:24;84101.18;;;22.11;26.53
70437;BME280;57877;39.750;-104.894;2023-08-17T10:52:50;84102.38;;;22.68;26.08
70437;BME280;57877;39.750;-104.894;2023-08-17T10:55:16;84105.44;;;22.47;26.58
70437;BME280;57877;39.750;-104.894;2023-08-17T10:57:42;84108.99;;;22.79;26.32
70437;BME280;57877;39.750;-104.894;2023-08-17T11:00:13;84109.83;;;22.91;25.65
70437;BME280;57877;39.750;-104.894;2023-08-17T11:02:33;84111.11;;;22.64;25.87
70437;BME280;57877;39.750;-104.894;2023-08-17T11:04:59;84116.46;;;22.55;26.07
70437;BME280;57877;39.750;-104.894;2023-08-17T11:07:25;84124.86;;;20.15;28.69
70437;BME280;57877;39.750;-104.894;2023-08-17T11:09:53;84135.21;;;21.16;27.68
70437;BME280;57877;39.750;-104.894;2023-08-17T11:14:45;84134.72;;;20.59;28.87
70437;BME280;57877;39.750;-104.894;2023-08-17T11:17:10;84139.15;;;20.38;29.21
70437;BME280;57877;39.750;-104.894;2023-08-17T11:19:34;84139.93;;;18.95;31.55
70437;BME280;57877;39.750;-104.894;2023-08-17T11:22:01;84146.59;;;19.65;30.88
70437;BME280;57877;39.750;-104.894;2023-08-17T11:24:26;84151.05;;;18.92;32.07
70437;BME280;57877;39.750;-104.894;2023-08-17T11:26:51;84153.04;;;18.64;33.23
70437;BME280;57877;39.750;-104.894;2023-08-17T11:29:16;84155.50;;;19.70;31.28
70437;BME280;57877;39.750;-104.894;2023-08-17T11:31:41;84160.08;;;19.03;32.83
70437;BME280;57877;39.750;-104.894;2023-08-17T11:34:06;84163.41;;;19.33;32.55
70437;BME280;57877;39.750;-104.894;2023-08-17T11:36:33;84165.87;;;19.22;32.70
70437;BME280;57877;39.750;-104.894;2023-08-17T11:38:57;84171.80;;;19.45;32.52
70437;BME280;57877;39.750;-104.894;2023-08-17T11:41:21;84172.55;;;18.69;33.49
70437;BME280;57877;39.750;-104.894;2023-08-17T11:43:46;84172.01;;;18.80;33.68
70437;BME280;57877;39.750;-104.894;2023-08-17T11:46:12;84167.85;;;18.55;33.89
70437;BME280;57877;39.750;-104.894;2023-08-17T11:48:37;84172.70;;;17.81;34.95
70437;BME280;57877;39.750;-104.894;2023-08-17T11:51:02;84177.21;;;18.58;34.02
70437;BME280;57877;39.750;-104.894;2023-08-17T11:53:34;84186.07;;;18.95;33.62
70437;BME280;57877;39.750;-104.894;2023-08-17T11:55:54;84197.21;;;18.99;33.33
70437;BME280;57877;39.750;-104.894;2023-08-17T11:58:19;84195.67;;;18.18;35.15
70437;BME280;57877;39.750;-104.894;2023-08-17T12:00:45;84189.42;;;18.34;34.59
70437;BME280;57877;39.750;-104.894;2023-08-17T12:03:09;84192.22;;;18.02;35.48
70437;BME280;57877;39.750;-104.894;2023-08-17T12:05:34;84189.24;;;18.59;34.69
70437;BME280;57877;39.750;-104.894;2023-08-17T12:08:00;84196.38;;;19.01;34.03
70437;BME280;57877;39.750;-104.894;2023-08-17T12:10:28;84203.85;;;18.95;33.88
70437;BME280;57877;39.750;-104.894;2023-08-17T12:12:52;84211.05;;;19.47;33.07
70437;BME280;57877;39.750;-104.894;2023-08-17T12:15:18;84212.42;;;17.83;35.38
70437;BME280;57877;39.750;-104.894;2023-08-17T12:17:45;84210.37;;;17.54;36.45
70437;BME280;57877;39.750;-104.894;2023-08-17T12:20:15;84205.92;;;18.70;35.40
70437;BME280;57877;39.750;-104.894;2023-08-17T12:22:35;84210.23;;;19.01;34.63
70437;BME280;57877;39.750;-104.894;2023-08-17T12:25:02;84216.99;;;17.87;36.84
70437;BME280;57877;39.750;-104.894;2023-08-17T12:27:27;84222.60;;;19.14;34.48